Time;durP1;ratioP1;P1;durP2;ratioP2;P2;SDS_P1;SDS_P2;PMS_P1;PMS_P2;Temp;Humidity;BMP_temperature;BMP_pressure;BME280_temperature;BME280_humidity;BME280_pressure;Samples;Min_cycle;Max_cycle;Signal;HPM_P1;HPM_P2
2022/10/31 00:01:53;;;;;;;100.20;41.70;;;;;;;9.68;100.00;100720.16;631921;1314;139423;-82
2022/10/31 00:16:56;;;;;;;57.10;29.90;;;;;;;9.62;100.00;100720.75;632972;1300;138936;-81
2022/10/31 00:31:59;;;;;;;83.20;39.80;;;;;;;9.47;100.00;100716.31;633251;1314;138670;-81
2022/10/31 00:47:03;;;;;;;82.80;40.80;;;;;;;9.38;100.00;100717.71;632649;1306;139368;-81
2022/10/31 01:02:06;;;;;;;67.90;34.30;;;;;;;9.23;100.00;100714.64;632415;1322;138970;-82
2022/10/31 01:17:10;;;;;;;68.40;34.40;;;;;;;9.22;100.00;100711.41;632155;1300;140302;-82
2022/10/31 01:32:13;;;;;;;73.50;39.90;;;;;;;9.13;100.00;100712.77;632869;1316;139106;-82
2022/10/31 01:47:21;;;;;;;78.30;43.30;;;;;;;8.99;100.00;100718.15;633623;1307;140497;-82
2022/10/31 02:02:27;;;;;;;75.90;39.20;;;;;;;8.90;100.00;100736.48;631375;1313;139648;-81
2022/10/31 02:17:32;;;;;;;95.40;43.90;;;;;;;8.80;100.00;100739.80;632077;1304;140566;-82
2022/10/31 02:32:58;;;;;;;99.20;47.30;;;;;;;8.83;100.00;100750.20;635822;1303;140308;-81
2022/10/31 02:48:14;;;;;;;73.20;36.60;;;;;;;8.80;100.00;100754.40;637009;1315;139751;-82
2022/10/31 03:03:29;;;;;;;46.00;24.20;;;;;;;8.84;100.00;100770.71;636933;1304;139128;-82
2022/10/31 03:18:37;;;;;;;33.50;18.80;;;;;;;9.11;100.00;100772.77;645028;1301;139609;-82
2022/10/31 03:33:43;;;;;;;24.50;15.50;;;;;;;9.59;100.00;100783.88;644577;1307;139644;-82
2022/10/31 03:48:47;;;;;;;31.90;20.00;;;;;;;10.05;100.00;100805.31;636794;1304;139362;-82
2022/10/31 04:03:51;;;;;;;28.20;16.10;;;;;;;10.13;100.00;100806.45;636242;1310;138978;-83
2022/10/31 04:18:55;;;;;;;34.20;19.70;;;;;;;10.37;100.00;100807.25;635930;1294;140867;-83
2022/10/31 04:33:59;;;;;;;25.30;14.90;;;;;;;10.50;100.00;100812.56;637509;1310;138954;-83
2022/10/31 04:49:02;;;;;;;21.60;12.90;;;;;;;10.82;100.00;100798.64;636796;1303;141251;-82
2022/10/31 05:04:06;;;;;;;28.40;15.40;;;;;;;11.17;100.00;100784.42;637419;1316;139470;-82
2022/10/31 05:19:09;;;;;;;20.80;12.10;;;;;;;11.40;100.00;100776.68;637044;1307;139779;-83
2022/10/31 05:34:32;;;;;;;26.40;14.20;;;;;;;11.62;100.00;100790.30;636450;1314;139183;-83
2022/10/31 05:50:03;;;;;;;25.00;14.00;;;;;;;11.88;100.00;100788.81;636444;1309;139610;-84
2022/10/31 06:05:23;;;;;;;26.20;14.90;;;;;;;12.03;100.00;100794.24;636188;1309;139183;-82
2022/10/31 06:20:28;;;;;;;26.30;15.10;;;;;;;12.13;100.00;100802.83;636231;1316;140110;-83
2022/10/31 06:35:36;;;;;;;39.40;22.70;;;;;;;12.25;100.00;100802.19;637036;1302;139373;-82
2022/10/31 06:50:39;;;;;;;27.30;16.50;;;;;;;12.35;100.00;100817.42;637142;1305;1106889;-84
2022/10/31 07:05:44;;;;;;;42.50;24.30;;;;;;;12.58;100.00;100841.77;641903;1314;139669;-85
2022/10/31 07:20:48;;;;;;;22.30;14.50;;;;;;;12.99;100.00;100839.19;637431;1303;140295;-84
2022/10/31 07:35:53;;;;;;;39.10;18.70;;;;;;;13.29;100.00;100855.67;637346;1301;140125;-84
2022/10/31 07:50:58;;;;;;;26.30;14.80;;;;;;;13.81;100.00;100858.33;636391;1300;139707;-85
2022/10/31 08:06:20;;;;;;;28.30;17.00;;;;;;;15.14;100.00;100855.89;636426;1303;142278;-85
2022/10/31 08:21:26;;;;;;;28.80;15.70;;;;;;;16.28;100.00;100853.49;636220;1304;140256;-85
2022/10/31 08:36:30;;;;;;;12.90;8.50;;;;;;;17.14;100.00;100862.10;636710;1301;139248;-83
2022/10/31 08:51:59;;;;;;;14.80;9.80;;;;;;;17.87;100.00;100866.83;636343;1295;139623;-84
2022/10/31 09:07:06;;;;;;;17.30;10.70;;;;;;;18.00;100.00;100874.41;635975;1316;140036;-85
2022/10/31 09:22:23;;;;;;;16.60;8.80;;;;;;;18.69;100.00;100882.81;636292;1301;139285;-84
2022/10/31 09:37:27;;;;;;;24.90;11.40;;;;;;;19.57;99.95;100878.18;636297;1302;138999;-85
2022/10/31 09:52:35;;;;;;;10.00;7.40;;;;;;;20.19;93.99;100886.80;636213;1301;139670;-85
2022/10/31 10:07:49;;;;;;;13.80;8.60;;;;;;;20.00;85.75;100871.11;635909;1300;140652;-85
2022/10/31 10:23:32;;;;;;;16.40;10.10;;;;;;;20.64;84.41;100862.84;638163;1304;140417;-85
2022/10/31 10:38:41;;;;;;;18.30;9.60;;;;;;;21.05;83.09;100853.60;638603;1302;139377;-85
2022/10/31 10:54:01;;;;;;;21.30;13.00;;;;;;;21.06;81.25;100862.30;636447;1304;139888;-85
2022/10/31 11:09:16;;;;;;;20.90;12.90;;;;;;;21.36;81.63;100855.60;636615;1316;139016;-86
2022/10/31 11:24:25;;;;;;;30.70;17.60;;;;;;;21.94;81.68;100850.99;637393;1301;139350;-86
2022/10/31 11:39:29;;;;;;;29.40;19.30;;;;;;;21.97;81.01;100845.39;636203;1308;139540;-86
2022/10/31 11:54:41;;;;;;;34.80;22.30;;;;;;;22.18;81.51;100831.03;636678;1300;139050;-89
2022/10/31 12:09:45;;;;;;;27.80;19.30;;;;;;;22.59;81.12;100832.35;637106;1301;139812;-88
2022/10/31 12:25:05;;;;;;;30.10;19.70;;;;;;;22.96;80.11;100819.14;636563;1306;140028;-86
2022/10/31 12:40:33;;;;;;;36.60;21.00;;;;;;;22.90;79.60;100823.81;636155;1305;139321;-86
2022/10/31 12:55:59;;;;;;;34.70;21.50;;;;;;;22.58;79.82;100826.88;636133;1307;139935;-86
2022/10/31 13:11:18;;;;;;;39.20;25.90;;;;;;;22.96;78.38;100829.25;636515;1301;139192;-88
2022/10/31 13:26:35;;;;;;;42.40;25.80;;;;;;;23.39;75.29;100827.13;637921;1300;139175;-90
2022/10/31 13:42:04;;;;;;;60.70;32.30;;;;;;;20.27;80.35;100832.66;642783;1301;139169;-86
2022/10/31 13:57:38;;;;;;;66.50;37.00;;;;;;;18.45;86.97;100833.23;638706;1302;139955;-91
2022/10/31 14:12:45;;;;;;;85.30;39.60;;;;;;;17.40;94.41;100835.13;637963;1305;139999;-83
2022/10/31 14:27:48;;;;;;;85.00;37.90;;;;;;;16.81;99.40;100831.63;638368;1302;139269;-83
2022/10/31 14:43:04;;;;;;;93.20;43.00;;;;;;;16.75;100.00;100824.98;643199;1301;140400;-83
2022/10/31 14:58:08;;;;;;;95.90;41.00;;;;;;;16.32;100.00;100828.67;636523;1302;139100;-83
2022/10/31 15:13:21;;;;;;;114.20;49.70;;;;;;;16.00;100.00;100824.66;636417;1299;140603;-83
2022/10/31 15:28:25;;;;;;;86.00;38.70;;;;;;;15.78;100.00;100831.50;637204;1301;140046;-83
2022/10/31 15:43:35;;;;;;;87.90;45.00;;;;;;;15.73;100.00;100835.50;636714;1311;139793;-83
2022/10/31 15:58:48;;;;;;;88.80;39.70;;;;;;;15.60;100.00;100830.45;636138;1291;140018;-83
2022/10/31 16:14:15;;;;;;;79.10;35.90;;;;;;;15.40;100.00;100834.37;636226;1301;140042;-83
2022/10/31 16:29:28;;;;;;;75.00;36.70;;;;;;;15.63;100.00;100842.63;636347;1304;139224;-83
2022/10/31 16:44:32;;;;;;;84.20;40.40;;;;;;;15.40;100.00;100857.83;635584;1295;139062;-83
2022/10/31 16:59:37;;;;;;;75.50;37.20;;;;;;;15.13;100.00;100864.04;636536;1310;139341;-83
2022/10/31 17:14:49;;;;;;;63.50;30.70;;;;;;;15.18;100.00;100861.96;637129;1301;140390;-83
2022/10/31 17:29:52;;;;;;;69.60;33.70;;;;;;;15.15;100.00;100868.49;636471;1316;139069;-84
2022/10/31 17:44:55;;;;;;;73.50;35.10;;;;;;;15.02;100.00;100864.53;636154;1310;139472;-83
2022/10/31 18:00:00;;;;;;;59.10;31.60;;;;;;;14.90;100.00;100858.70;636030;1301;139125;-86
2022/10/31 18:15:08;;;;;;;71.40;37.00;;;;;;;14.94;100.00;100848.60;636397;1303;139320;-85
2022/10/31 18:30:11;;;;;;;79.20;38.50;;;;;;;14.82;100.00;100855.05;637076;1300;139391;-83
2022/10/31 18:45:15;;;;;;;67.00;34.20;;;;;;;14.72;100.00;100842.95;635823;1301;1080017;-83
2022/10/31 19:00:38;;;;;;;56.60;28.50;;;;;;;14.72;100.00;100838.77;637796;1301;139624;-83
2022/10/31 19:15:42;;;;;;;55.70;27.10;;;;;;;14.86;100.00;100838.12;636255;1296;140107;-84
2022/10/31 19:30:53;;;;;;;49.40;23.50;;;;;;;14.67;100.00;100834.62;636961;1300;139563;-84
2022/10/31 19:45:59;;;;;;;41.70;22.40;;;;;;;14.39;100.00;100832.87;637496;1301;140716;-84
2022/10/31 20:01:10;;;;;;;35.00;19.90;;;;;;;14.28;100.00;100837.11;636913;1306;140214;-84
2022/10/31 20:16:15;;;;;;;40.50;19.90;;;;;;;14.22;100.00;100840.61;637637;1309;139348;-84
2022/10/31 20:31:22;;;;;;;43.20;22.00;;;;;;;14.16;100.00;100833.30;638344;1301;139882;-84
2022/10/31 20:46:26;;;;;;;32.40;18.40;;;;;;;14.07;100.00;100832.14;638307;1294;140224;-85
2022/10/31 21:01:32;;;;;;;24.10;13.40;;;;;;;14.04;100.00;100833.05;637530;1304;139658;-84
2022/10/31 21:16:36;;;;;;;30.80;15.30;;;;;;;13.89;100.00;100834.98;639672;1308;139998;-84
2022/10/31 21:31:40;;;;;;;29.60;15.00;;;;;;;13.98;100.00;100829.70;637682;1300;140168;-86
2022/10/31 21:46:46;;;;;;;31.40;18.30;;;;;;;14.06;100.00;100819.09;640001;1297;139928;-84
2022/10/31 22:01:50;;;;;;;29.50;16.20;;;;;;;14.07;100.00;100809.33;636891;1301;140316;-84
2022/10/31 22:16:53;;;;;;;19.40;11.30;;;;;;;13.98;100.00;100805.27;635840;1311;140214;-84
2022/10/31 22:31:56;;;;;;;18.10;10.80;;;;;;;14.05;100.00;100794.52;636132;1308;139813;-84
2022/10/31 22:47:03;;;;;;;22.00;12.30;;;;;;;14.14;100.00;100799.55;636824;1309;142116;-85
2022/10/31 23:02:06;;;;;;;22.60;13.10;;;;;;;14.09;100.00;100793.12;636269;1314;140301;-85
2022/10/31 23:17:16;;;;;;;24.60;12.40;;;;;;;14.05;100.00;100785.91;636202;1316;140370;-84
2022/10/31 23:32:29;;;;;;;21.40;10.60;;;;;;;14.00;100.00;100777.67;636188;1300;140288;-85
2022/10/31 23:47:32;;;;;;;22.90;10.00;;;;;;;13.89;100.00;100765.66;636213;1309;139969;-85
